sensor_id;sensor_type;location;lat;lon;timestamp;P1;durP1;ratioP1;P2;durP2;ratioP2
55210;SDS011;41082;52.822;6.666;2023-04-05T00:00:43;5.90;;;3.00;;
55210;SDS011;41082;52.822;6.666;2023-04-05T00:03:09;7.03;;;3.72;;
55210;SDS011;41082;52.822;6.666;2023-04-05T00:05:35;7.95;;;3.85;;
55210;SDS011;41082;52.822;6.666;2023-04-05T00:08:01;6.55;;;3.63;;
55210;SDS011;41082;52.822;6.666;2023-04-05T00:10:28;9.85;;;4.72;;
55210;SDS011;41082;52.822;6.666;2023-04-05T00:12:54;8.57;;;4.03;;
55210;SDS011;41082;52.822;6.666;2023-04-05T00:15:20;8.57;;;4.03;;
55210;SDS011;41082;52.822;6.666;2023-04-05T00:17:46;12.32;;;5.00;;
55210;SDS011;41082;52.822;6.666;2023-04-05T00:20:12;12.05;;;6.07;;
55210;SDS011;41082;52.822;6.666;2023-04-05T00:22:38;16.02;;;7.65;;
55210;SDS011;41082;52.822;6.666;2023-04-05T00:25:05;21.05;;;8.15;;
55210;SDS011;41082;52.822;6.666;2023-04-05T00:27:31;10.45;;;5.03;;
55210;SDS011;41082;52.822;6.666;2023-04-05T00:29:57;9.38;;;4.78;;
55210;SDS011;41082;52.822;6.666;2023-04-05T00:32:23;8.00;;;3.45;;
55210;SDS011;41082;52.822;6.666;2023-04-05T00:34:48;9.52;;;4.13;;
55210;SDS011;41082;52.822;6.666;2023-04-05T00:37:14;8.20;;;3.47;;
55210;SDS011;41082;52.822;6.666;2023-04-05T00:39:40;5.97;;;3.40;;
55210;SDS011;41082;52.822;6.666;2023-04-05T00:42:06;6.13;;;3.10;;
55210;SDS011;41082;52.822;6.666;2023-04-05T00:44:33;6.53;;;3.13;;
55210;SDS011;41082;52.822;6.666;2023-04-05T00:47:00;6.80;;;2.92;;
55210;SDS011;41082;52.822;6.666;2023-04-05T00:49:27;6.05;;;3.00;;
55210;SDS011;41082;52.822;6.666;2023-04-05T00:51:55;6.47;;;3.47;;
55210;SDS011;41082;52.822;6.666;2023-04-05T00:54:21;5.75;;;3.22;;
55210;SDS011;41082;52.822;6.666;2023-04-05T00:56:46;7.18;;;4.13;;
55210;SDS011;41082;52.822;6.666;2023-04-05T00:59:12;7.95;;;4.07;;
55210;SDS011;41082;52.822;6.666;2023-04-05T01:01:38;7.95;;;4.10;;
55210;SDS011;41082;52.822;6.666;2023-04-05T01:04:05;8.40;;;4.05;;
55210;SDS011;41082;52.822;6.666;2023-04-05T01:06:41;5.63;;;2.78;;
55210;SDS011;41082;52.822;6.666;2023-04-05T01:12:15;6.05;;;3.38;;
55210;SDS011;41082;52.822;6.666;2023-04-05T01:14:45;5.80;;;2.92;;
55210;SDS011;41082;52.822;6.666;2023-04-05T01:17:14;6.22;;;3.03;;
55210;SDS011;41082;52.822;6.666;2023-04-05T01:19:45;4.80;;;2.70;;
55210;SDS011;41082;52.822;6.666;2023-04-05T01:22:18;9.30;;;3.65;;
55210;SDS011;41082;52.822;6.666;2023-04-05T01:25:20;7.65;;;3.33;;
55210;SDS011;41082;52.822;6.666;2023-04-05T01:33:41;6.93;;;3.38;;
55210;SDS011;41082;52.822;6.666;2023-04-05T01:36:19;6.72;;;3.30;;
55210;SDS011;41082;52.822;6.666;2023-04-05T01:38:52;6.57;;;3.30;;
55210;SDS011;41082;52.822;6.666;2023-04-05T01:41:20;8.88;;;3.75;;
55210;SDS011;41082;52.822;6.666;2023-04-05T01:43:46;6.57;;;3.92;;
55210;SDS011;41082;52.822;6.666;2023-04-05T01:46:12;7.85;;;4.03;;
55210;SDS011;41082;52.822;6.666;2023-04-05T01:48:37;7.60;;;3.88;;
55210;SDS011;41082;52.822;6.666;2023-04-05T01:51:03;7.75;;;3.70;;
55210;SDS011;41082;52.822;6.666;2023-04-05T01:53:28;7.53;;;3.53;;
55210;SDS011;41082;52.822;6.666;2023-04-05T01:55:58;7.50;;;3.75;;
55210;SDS011;41082;52.822;6.666;2023-04-05T01:58:25;7.32;;;3.83;;
55210;SDS011;41082;52.822;6.666;2023-04-05T02:00:53;6.50;;;3.63;;
55210;SDS011;41082;52.822;6.666;2023-04-05T02:03:20;6.75;;;3.85;;
55210;SDS011;41082;52.822;6.666;2023-04-05T02:05:46;7.47;;;3.47;;
55210;SDS011;41082;52.822;6.666;2023-04-05T02:08:11;6.88;;;3.42;;
55210;SDS011;41082;52.822;6.666;2023-04-05T02:10:38;7.95;;;3.75;;
55210;SDS011;41082;52.822;6.666;2023-04-05T02:13:04;7.65;;;3.20;;
55210;SDS011;41082;52.822;6.666;2023-04-05T02:15:30;8.05;;;3.55;;
55210;SDS011;41082;52.822;6.666;2023-04-05T02:17:57;6.25;;;3.22;;
55210;SDS011;41082;52.822;6.666;2023-04-05T02:20:26;6.72;;;3.30;;
55210;SDS011;41082;52.822;6.666;2023-04-05T02:22:52;6.18;;;3.78;;
55210;SDS011;41082;52.822;6.666;2023-04-05T02:25:18;6.80;;;3.60;;
55210;SDS011;41082;52.822;6.666;2023-04-05T02:27:44;6.13;;;3.40;;
55210;SDS011;41082;52.822;6.666;2023-04-05T02:30:10;7.57;;;3.47;;
55210;SDS011;41082;52.822;6.666;2023-04-05T02:32:38;4.82;;;2.97;;
55210;SDS011;41082;52.822;6.666;2023-04-05T02:35:07;5.68;;;3.30;;
55210;SDS011;41082;52.822;6.666;2023-04-05T02:37:33;6.72;;;3.42;;
55210;SDS011;41082;52.822;6.666;2023-04-05T02:39:59;6.35;;;3.53;;
55210;SDS011;41082;52.822;6.666;2023-04-05T02:42:25;8.10;;;3.28;;
55210;SDS011;41082;52.822;6.666;2023-04-05T02:44:51;8.38;;;3.38;;
55210;SDS011;41082;52.822;6.666;2023-04-05T02:47:17;7.20;;;3.60;;
55210;SDS011;41082;52.822;6.666;2023-04-05T02:49:46;7.10;;;3.38;;
55210;SDS011;41082;52.822;6.666;2023-04-05T02:52:13;7.53;;;3.28;;
55210;SDS011;41082;52.822;6.666;2023-04-05T02:54:39;6.10;;;2.70;;
55210;SDS011;41082;52.822;6.666;2023-04-05T02:57:04;6.60;;;3.00;;
55210;SDS011;41082;52.822;6.666;2023-04-05T02:59:30;6.15;;;3.40;;
55210;SDS011;41082;52.822;6.666;2023-04-05T03:01:55;5.72;;;2.92;;
55210;SDS011;41082;52.822;6.666;2023-04-05T03:04:21;8.18;;;3.50;;
55210;SDS011;41082;52.822;6.666;2023-04-05T03:06:50;6.38;;;3.10;;
55210;SDS011;41082;52.822;6.666;2023-04-05T03:09:18;8.27;;;3.10;;
55210;SDS011;41082;52.822;6.666;2023-04-05T03:11:45;8.63;;;3.75;;
55210;SDS011;41082;52.822;6.666;2023-04-05T03:14:10;8.32;;;3.35;;
55210;SDS011;41082;52.822;6.666;2023-04-05T03:16:36;8.00;;;3.40;;
55210;SDS011;41082;52.822;6.666;2023-04-05T03:19:03;7.80;;;3.50;;
55210;SDS011;41082;52.822;6.666;2023-04-05T03:21:30;7.63;;;3.33;;
55210;SDS011;41082;52.822;6.666;2023-04-05T03:23:57;6.65;;;3.70;;
55210;SDS011;41082;52.822;6.666;2023-04-05T03:26:24;6.97;;;3.60;;
55210;SDS011;41082;52.822;6.666;2023-04-05T03:28:50;6.22;;;3.35;;
55210;SDS011;41082;52.822;6.666;2023-04-05T03:31:16;5.13;;;2.83;;
55210;SDS011;41082;52.822;6.666;2023-04-05T03:33:41;6.47;;;3.05;;
55210;SDS011;41082;52.822;6.666;2023-04-05T03:36:08;7.82;;;3.63;;
55210;SDS011;41082;52.822;6.666;2023-04-05T03:38:34;5.63;;;3.38;;
55210;SDS011;41082;52.822;6.666;2023-04-05T03:41:01;10.93;;;4.13;;
55210;SDS011;41082;52.822;6.666;2023-04-05T03:43:27;6.03;;;3.60;;
55210;SDS011;41082;52.822;6.666;2023-04-05T03:45:53;6.80;;;4.32;;
55210;SDS011;41082;52.822;6.666;2023-04-05T03:48:19;8.73;;;4.90;;
55210;SDS011;41082;52.822;6.666;2023-04-05T03:50:46;8.82;;;5.25;;
55210;SDS011;41082;52.822;6.666;2023-04-05T03:53:11;9.57;;;4.72;;
55210;SDS011;41082;52.822;6.666;2023-04-05T03:55:37;8.18;;;4.47;;
55210;SDS011;41082;52.822;6.666;2023-04-05T03:58:04;6.78;;;4.35;;
55210;SDS011;41082;52.822;6.666;2023-04-05T04:00:29;6.40;;;3.78;;
55210;SDS011;41082;52.822;6.666;2023-04-05T04:02:55;5.47;;;2.83;;
55210;SDS011;41082;52.822;6.666;2023-04-05T04:05:21;4.93;;;2.58;;
55210;SDS011;41082;52.822;6.666;2023-04-05T04:07:46;8.02;;;3.05;;
55210;SDS011;41082;52.822;6.666;2023-04-05T04:10:13;5.38;;;2.53;;
55210;SDS011;41082;52.822;6.666;2023-04-05T04:12:41;7.18;;;2.90;;
55210;SDS011;41082;52.822;6.666;2023-04-05T04:15:07;4.85;;;2.25;;
55210;SDS011;41082;52.822;6.666;2023-04-05T04:17:34;5.70;;;2.60;;
55210;SDS011;41082;52.822;6.666;2023-04-05T04:20:00;7.65;;;3.05;;
55210;SDS011;41082;52.822;6.666;2023-04-05T04:22:28;6.72;;;3.30;;
55210;SDS011;41082;52.822;6.666;2023-04-05T04:24:57;6.18;;;3.33;;
55210;SDS011;41082;52.822;6.666;2023-04-05T04:27:28;8.57;;;3.67;;
55210;SDS011;41082;52.822;6.666;2023-04-05T04:29:54;7.53;;;3.58;;
55210;SDS011;41082;52.822;6.666;2023-04-05T04:32:20;6.03;;;3.17;;
55210;SDS011;41082;52.822;6.666;2023-04-05T04:34:51;7.18;;;3.47;;
55210;SDS011;41082;52.822;6.666;2023-04-05T04:37:19;4.35;;;2.55;;
55210;SDS011;41082;52.822;6.666;2023-04-05T04:39:47;6.28;;;3.50;;
55210;SDS011;41082;52.822;6.666;2023-04-05T04:42:15;6.15;;;3.63;;
55210;SDS011;41082;52.822;6.666;2023-04-05T04:44:46;8.65;;;3.17;;
55210;SDS011;41082;52.822;6.666;2023-04-05T04:47:12;8.10;;;4.00;;
55210;SDS011;41082;52.822;6.666;2023-04-05T04:49:41;5.40;;;3.63;;
55210;SDS011;41082;52.822;6.666;2023-04-05T04:52:07;6.78;;;3.58;;
55210;SDS011;41082;52.822;6.666;2023-04-05T04:54:33;7.85;;;3.90;;
55210;SDS011;41082;52.822;6.666;2023-04-05T04:57:00;8.15;;;3.67;;
55210;SDS011;41082;52.822;6.666;2023-04-05T04:59:26;6.88;;;3.50;;
55210;SDS011;41082;52.822;6.666;2023-04-05T05:01:52;7.53;;;3.72;;
55210;SDS011;41082;52.822;6.666;2023-04-05T05:04:18;6.93;;;4.20;;
55210;SDS011;41082;52.822;6.666;2023-04-05T05:06:44;8.05;;;4.25;;
55210;SDS011;41082;52.822;6.666;2023-04-05T05:09:10;8.18;;;4.20;;
55210;SDS011;41082;52.822;6.666;2023-04-05T05:11:35;8.23;;;3.72;;
55210;SDS011;41082;52.822;6.666;2023-04-05T05:14:01;9.15;;;4.75;;
55210;SDS011;41082;52.822;6.666;2023-04-05T05:16:26;12.73;;;4.45;;
55210;SDS011;41082;52.822;6.666;2023-04-05T05:18:53;8.70;;;5.05;;
55210;SDS011;41082;52.822;6.666;2023-04-05T05:21:19;11.02;;;4.72;;
55210;SDS011;41082;52.822;6.666;2023-04-05T05:23:45;9.55;;;5.13;;
55210;SDS011;41082;52.822;6.666;2023-04-05T05:26:11;12.93;;;5.47;;
55210;SDS011;41082;52.822;6.666;2023-04-05T05:28:38;8.48;;;4.72;;
55210;SDS011;41082;52.822;6.666;2023-04-05T05:31:04;10.60;;;5.10;;
55210;SDS011;41082;52.822;6.666;2023-04-05T05:33:30;10.02;;;5.25;;
55210;SDS011;41082;52.822;6.666;2023-04-05T05:35:55;11.35;;;4.97;;
55210;SDS011;41082;52.822;6.666;2023-04-05T05:38:22;11.25;;;6.03;;
55210;SDS011;41082;52.822;6.666;2023-04-05T05:40:47;11.73;;;6.30;;
55210;SDS011;41082;52.822;6.666;2023-04-05T05:43:18;8.80;;;5.25;;
55210;SDS011;41082;52.822;6.666;2023-04-05T05:45:44;12.52;;;6.95;;
55210;SDS011;41082;52.822;6.666;2023-04-05T05:48:10;13.75;;;6.03;;
55210;SDS011;41082;52.822;6.666;2023-04-05T05:50:36;7.80;;;4.65;;
55210;SDS011;41082;52.822;6.666;2023-04-05T05:53:03;7.70;;;5.22;;
55210;SDS011;41082;52.822;6.666;2023-04-05T05:55:28;7.25;;;4.28;;
55210;SDS011;41082;52.822;6.666;2023-04-05T05:57:54;7.05;;;4.45;;
55210;SDS011;41082;52.822;6.666;2023-04-05T06:00:20;7.95;;;4.60;;
55210;SDS011;41082;52.822;6.666;2023-04-05T06:02:48;9.00;;;4.10;;
55210;SDS011;41082;52.822;6.666;2023-04-05T06:05:14;9.43;;;5.32;;
55210;SDS011;41082;52.822;6.666;2023-04-05T06:07:39;9.93;;;4.93;;
55210;SDS011;41082;52.822;6.666;2023-04-05T06:10:06;12.57;;;5.50;;
55210;SDS011;41082;52.822;6.666;2023-04-05T06:12:32;11.13;;;6.25;;
55210;SDS011;41082;52.822;6.666;2023-04-05T06:14:59;12.35;;;6.32;;
55210;SDS011;41082;52.822;6.666;2023-04-05T06:17:25;10.73;;;6.32;;
55210;SDS011;41082;52.822;6.666;2023-04-05T06:19:51;12.75;;;6.97;;
55210;SDS011;41082;52.822;6.666;2023-04-05T06:22:16;9.50;;;6.32;;
55210;SDS011;41082;52.822;6.666;2023-04-05T06:24:42;10.85;;;6.45;;
55210;SDS011;41082;52.822;6.666;2023-04-05T06:27:08;10.80;;;6.35;;
55210;SDS011;41082;52.822;6.666;2023-04-05T06:29:33;14.10;;;6.28;;
55210;SDS011;41082;52.822;6.666;2023-04-05T06:31:59;11.18;;;6.13;;
55210;SDS011;41082;52.822;6.666;2023-04-05T06:34:25;10.40;;;6.53;;
55210;SDS011;41082;52.822;6.666;2023-04-05T06:36:51;12.05;;;7.13;;
55210;SDS011;41082;52.822;6.666;2023-04-05T06:39:16;12.07;;;6.60;;
55210;SDS011;41082;52.822;6.666;2023-04-05T06:41:42;11.02;;;7.30;;
55210;SDS011;41082;52.822;6.666;2023-04-05T06:44:07;16.02;;;7.68;;
55210;SDS011;41082;52.822;6.666;2023-04-05T06:46:33;11.93;;;7.28;;
55210;SDS011;41082;52.822;6.666;2023-04-05T06:48:59;13.27;;;8.23;;
55210;SDS011;41082;52.822;6.666;2023-04-05T06:51:25;11.95;;;7.90;;
55210;SDS011;41082;52.822;6.666;2023-04-05T06:53:52;11.88;;;6.97;;
55210;SDS011;41082;52.822;6.666;2023-04-05T06:56:18;11.88;;;7.70;;
55210;SDS011;41082;52.822;6.666;2023-04-05T06:58:44;11.40;;;7.53;;
55210;SDS011;41082;52.822;6.666;2023-04-05T07:01:09;10.85;;;7.18;;
55210;SDS011;41082;52.822;6.666;2023-04-05T07:03:36;9.07;;;7.43;;
55210;SDS011;41082;52.822;6.666;2023-04-05T07:06:01;13.70;;;7.40;;
55210;SDS011;41082;52.822;6.666;2023-04-05T07:08:29;12.65;;;8.15;;
55210;SDS011;41082;52.822;6.666;2023-04-05T07:10:56;13.57;;;8.45;;
55210;SDS011;41082;52.822;6.666;2023-04-05T07:13:22;11.32;;;7.47;;
55210;SDS011;41082;52.822;6.666;2023-04-05T07:15:49;12.18;;;7.07;;
55210;SDS011;41082;52.822;6.666;2023-04-05T07:18:15;13.15;;;8.00;;
55210;SDS011;41082;52.822;6.666;2023-04-05T07:20:41;11.13;;;8.77;;
55210;SDS011;41082;52.822;6.666;2023-04-05T07:23:07;9.57;;;7.25;;
55210;SDS011;41082;52.822;6.666;2023-04-05T07:25:33;12.93;;;8.23;;
55210;SDS011;41082;52.822;6.666;2023-04-05T07:27:58;12.52;;;7.70;;
55210;SDS011;41082;52.822;6.666;2023-04-05T07:30:27;13.88;;;8.38;;
55210;SDS011;41082;52.822;6.666;2023-04-05T07:32:53;11.75;;;7.50;;
55210;SDS011;41082;52.822;6.666;2023-04-05T07:35:18;11.32;;;7.57;;
55210;SDS011;41082;52.822;6.666;2023-04-05T07:37:44;11.88;;;7.15;;
55210;SDS011;41082;52.822;6.666;2023-04-05T07:40:09;14.00;;;7.20;;
55210;SDS011;41082;52.822;6.666;2023-04-05T07:42:36;11.95;;;8.50;;
55210;SDS011;41082;52.822;6.666;2023-04-05T07:45:02;11.48;;;6.70;;
55210;SDS011;41082;52.822;6.666;2023-04-05T07:47:28;11.13;;;7.40;;
55210;SDS011;41082;52.822;6.666;2023-04-05T07:49:53;11.82;;;6.63;;
55210;SDS011;41082;52.822;6.666;2023-04-05T07:52:19;14.30;;;8.13;;
55210;SDS011;41082;52.822;6.666;2023-04-05T07:54:44;9.38;;;6.43;;
55210;SDS011;41082;52.822;6.666;2023-04-05T07:57:19;12.65;;;6.65;;
55210;SDS011;41082;52.822;6.666;2023-04-05T07:59:45;9.60;;;6.55;;
55210;SDS011;41082;52.822;6.666;2023-04-05T08:02:11;9.38;;;5.82;;
55210;SDS011;41082;52.822;6.666;2023-04-05T08:04:37;10.75;;;5.63;;
55210;SDS011;41082;52.822;6.666;2023-04-05T08:07:03;9.75;;;5.95;;
55210;SDS011;41082;52.822;6.666;2023-04-05T08:09:28;9.77;;;5.60;;
55210;SDS011;41082;52.822;6.666;2023-04-05T08:11:54;7.85;;;5.47;;
55210;SDS011;41082;52.822;6.666;2023-04-05T08:14:21;10.82;;;4.65;;
55210;SDS011;41082;52.822;6.666;2023-04-05T08:16:47;7.78;;;4.50;;
55210;SDS011;41082;52.822;6.666;2023-04-05T08:19:14;6.25;;;3.67;;
55210;SDS011;41082;52.822;6.666;2023-04-05T08:21:40;7.28;;;4.18;;
55210;SDS011;41082;52.822;6.666;2023-04-05T08:24:06;6.47;;;3.72;;
55210;SDS011;41082;52.822;6.666;2023-04-05T08:26:32;7.20;;;4.32;;
55210;SDS011;41082;52.822;6.666;2023-04-05T08:28:57;9.32;;;4.40;;
55210;SDS011;41082;52.822;6.666;2023-04-05T08:31:23;6.40;;;4.32;;
55210;SDS011;41082;52.822;6.666;2023-04-05T08:33:49;6.15;;;4.05;;
55210;SDS011;41082;52.822;6.666;2023-04-05T08:36:14;7.57;;;4.68;;
55210;SDS011;41082;52.822;6.666;2023-04-05T08:38:40;6.50;;;4.43;;
55210;SDS011;41082;52.822;6.666;2023-04-05T08:41:07;8.02;;;4.75;;
55210;SDS011;41082;52.822;6.666;2023-04-05T08:46:28;6.63;;;4.07;;
55210;SDS011;41082;52.822;6.666;2023-04-05T08:48:55;7.82;;;3.70;;
55210;SDS011;41082;52.822;6.666;2023-04-05T08:51:22;5.07;;;3.80;;
55210;SDS011;41082;52.822;6.666;2023-04-05T08:53:49;8.23;;;3.50;;
55210;SDS011;41082;52.822;6.666;2023-04-05T08:56:15;5.25;;;3.25;;
55210;SDS011;41082;52.822;6.666;2023-04-05T08:58:47;5.45;;;3.40;;
55210;SDS011;41082;52.822;6.666;2023-04-05T09:01:31;6.22;;;2.63;;
55210;SDS011;41082;52.822;6.666;2023-04-05T09:03:59;5.70;;;2.83;;
55210;SDS011;41082;52.822;6.666;2023-04-05T09:06:29;6.40;;;2.90;;
55210;SDS011;41082;52.822;6.666;2023-04-05T09:08:55;6.97;;;2.70;;
55210;SDS011;41082;52.822;6.666;2023-04-05T09:11:22;6.43;;;3.03;;
55210;SDS011;41082;52.822;6.666;2023-04-05T09:13:48;4.07;;;3.05;;
55210;SDS011;41082;52.822;6.666;2023-04-05T09:16:14;3.88;;;2.38;;
55210;SDS011;41082;52.822;6.666;2023-04-05T09:18:40;5.03;;;2.70;;
55210;SDS011;41082;52.822;6.666;2023-04-05T09:21:06;5.20;;;2.53;;
55210;SDS011;41082;52.822;6.666;2023-04-05T09:23:35;5.28;;;2.40;;
55210;SDS011;41082;52.822;6.666;2023-04-05T09:26:19;5.22;;;2.05;;
55210;SDS011;41082;52.822;6.666;2023-04-05T09:28:47;3.58;;;1.85;;
55210;SDS011;41082;52.822;6.666;2023-04-05T09:31:29;4.50;;;2.65;;
55210;SDS011;41082;52.822;6.666;2023-04-05T09:34:00;5.60;;;2.00;;
55210;SDS011;41082;52.822;6.666;2023-04-05T09:36:27;4.03;;;1.65;;
55210;SDS011;41082;52.822;6.666;2023-04-05T09:39:02;5.28;;;1.50;;
55210;SDS011;41082;52.822;6.666;2023-04-05T09:41:32;5.18;;;1.45;;
55210;SDS011;41082;52.822;6.666;2023-04-05T09:43:59;2.78;;;1.70;;
55210;SDS011;41082;52.822;6.666;2023-04-05T09:46:31;6.03;;;1.92;;
55210;SDS011;41082;52.822;6.666;2023-04-05T09:48:59;5.20;;;1.50;;
55210;SDS011;41082;52.822;6.666;2023-04-05T09:51:32;3.88;;;1.52;;
55210;SDS011;41082;52.822;6.666;2023-04-05T09:54:05;3.28;;;2.10;;
55210;SDS011;41082;52.822;6.666;2023-04-05T09:56:36;8.73;;;2.55;;
55210;SDS011;41082;52.822;6.666;2023-04-05T09:59:06;4.68;;;2.08;;
55210;SDS011;41082;52.822;6.666;2023-04-05T10:01:34;2.28;;;1.73;;
55210;SDS011;41082;52.822;6.666;2023-04-05T10:04:00;4.78;;;2.47;;
55210;SDS011;41082;52.822;6.666;2023-04-05T10:06:36;4.38;;;3.08;;
55210;SDS011;41082;52.822;6.666;2023-04-05T10:09:03;3.85;;;3.20;;
55210;SDS011;41082;52.822;6.666;2023-04-05T10:11:33;4.43;;;3.42;;
55210;SDS011;41082;52.822;6.666;2023-04-05T10:14:01;4.25;;;3.30;;
55210;SDS011;41082;52.822;6.666;2023-04-05T10:16:39;4.30;;;2.50;;
55210;SDS011;41082;52.822;6.666;2023-04-05T10:19:23;4.00;;;2.50;;
55210;SDS011;41082;52.822;6.666;2023-04-05T10:21:53;4.43;;;2.10;;
55210;SDS011;41082;52.822;6.666;2023-04-05T10:24:33;4.95;;;2.53;;
55210;SDS011;41082;52.822;6.666;2023-04-05T10:29:37;5.13;;;2.38;;
55210;SDS011;41082;52.822;6.666;2023-04-05T10:33:00;4.32;;;2.47;;
55210;SDS011;41082;52.822;6.666;2023-04-05T10:35:08;4.78;;;2.55;;
55210;SDS011;41082;52.822;6.666;2023-04-05T10:37:46;4.40;;;2.60;;
55210;SDS011;41082;52.822;6.666;2023-04-05T10:40:19;4.95;;;2.28;;
55210;SDS011;41082;52.822;6.666;2023-04-05T10:42:46;4.45;;;2.25;;
55210;SDS011;41082;52.822;6.666;2023-04-05T10:45:16;3.50;;;2.25;;
55210;SDS011;41082;52.822;6.666;2023-04-05T10:48:08;4.93;;;2.30;;
55210;SDS011;41082;52.822;6.666;2023-04-05T10:50:38;3.40;;;1.98;;
55210;SDS011;41082;52.822;6.666;2023-04-05T10:53:04;6.15;;;2.10;;
55210;SDS011;41082;52.822;6.666;2023-04-05T10:55:31;4.30;;;2.05;;
55210;SDS011;41082;52.822;6.666;2023-04-05T10:57:59;4.00;;;2.00;;
55210;SDS011;41082;52.822;6.666;2023-04-05T11:00:25;4.53;;;2.30;;
55210;SDS011;41082;52.822;6.666;2023-04-05T11:02:54;3.95;;;2.55;;
55210;SDS011;41082;52.822;6.666;2023-04-05T11:05:35;4.28;;;2.33;;
55210;SDS011;41082;52.822;6.666;2023-04-05T11:08:05;5.25;;;2.55;;
55210;SDS011;41082;52.822;6.666;2023-04-05T11:10:35;5.55;;;2.42;;
55210;SDS011;41082;52.822;6.666;2023-04-05T11:13:02;3.72;;;2.28;;
55210;SDS011;41082;52.822;6.666;2023-04-05T11:15:29;3.42;;;2.40;;
55210;SDS011;41082;52.822;6.666;2023-04-05T11:20:43;7.50;;;2.53;;
55210;SDS011;41082;52.822;6.666;2023-04-05T11:23:13;5.25;;;2.42;;
55210;SDS011;41082;52.822;6.666;2023-04-05T11:25:44;5.05;;;2.50;;
55210;SDS011;41082;52.822;6.666;2023-04-05T11:28:24;6.03;;;2.53;;
55210;SDS011;41082;52.822;6.666;2023-04-05T11:30:53;3.55;;;2.80;;
55210;SDS011;41082;52.822;6.666;2023-04-05T11:36:10;6.45;;;2.50;;
55210;SDS011;41082;52.822;6.666;2023-04-05T11:38:37;4.28;;;2.70;;
55210;SDS011;41082;52.822;6.666;2023-04-05T11:41:11;3.47;;;2.05;;
55210;SDS011;41082;52.822;6.666;2023-04-05T11:43:41;5.65;;;2.40;;
55210;SDS011;41082;52.822;6.666;2023-04-05T11:46:07;4.95;;;2.55;;
55210;SDS011;41082;52.822;6.666;2023-04-05T11:48:33;4.53;;;1.85;;
55210;SDS011;41082;52.822;6.666;2023-04-05T11:51:00;4.80;;;2.35;;
55210;SDS011;41082;52.822;6.666;2023-04-05T11:53:34;5.00;;;2.70;;
55210;SDS011;41082;52.822;6.666;2023-04-05T11:56:10;5.05;;;2.15;;
55210;SDS011;41082;52.822;6.666;2023-04-05T11:58:37;3.70;;;2.30;;
55210;SDS011;41082;52.822;6.666;2023-04-05T12:01:04;5.20;;;2.30;;
55210;SDS011;41082;52.822;6.666;2023-04-05T12:03:33;3.75;;;2.25;;
55210;SDS011;41082;52.822;6.666;2023-04-05T12:06:00;4.57;;;2.45;;
55210;SDS011;41082;52.822;6.666;2023-04-05T12:11:07;2.67;;;1.65;;
55210;SDS011;41082;52.822;6.666;2023-04-05T12:13:34;4.45;;;2.53;;
55210;SDS011;41082;52.822;6.666;2023-04-05T12:16:01;3.55;;;2.45;;
55210;SDS011;41082;52.822;6.666;2023-04-05T12:18:29;3.47;;;2.25;;
55210;SDS011;41082;52.822;6.666;2023-04-05T12:20:59;8.98;;;2.72;;
55210;SDS011;41082;52.822;6.666;2023-04-05T12:23:26;4.22;;;2.33;;
55210;SDS011;41082;52.822;6.666;2023-04-05T12:25:53;5.97;;;2.80;;
55210;SDS011;41082;52.822;6.666;2023-04-05T12:28:20;4.55;;;2.28;;
55210;SDS011;41082;52.822;6.666;2023-04-05T12:30:55;3.33;;;2.47;;
55210;SDS011;41082;52.822;6.666;2023-04-05T12:33:25;7.63;;;2.53;;
55210;SDS011;41082;52.822;6.666;2023-04-05T12:35:56;6.25;;;2.30;;
55210;SDS011;41082;52.822;6.666;2023-04-05T12:38:26;5.38;;;2.22;;
55210;SDS011;41082;52.822;6.666;2023-04-05T12:40:52;4.03;;;2.10;;
55210;SDS011;41082;52.822;6.666;2023-04-05T12:43:18;3.42;;;2.40;;
55210;SDS011;41082;52.822;6.666;2023-04-05T12:45:45;4.32;;;3.15;;
55210;SDS011;41082;52.822;6.666;2023-04-05T12:48:14;5.10;;;2.33;;
55210;SDS011;41082;52.822;6.666;2023-04-05T12:50:46;4.60;;;2.83;;
55210;SDS011;41082;52.822;6.666;2023-04-05T12:53:19;4.43;;;2.78;;
55210;SDS011;41082;52.822;6.666;2023-04-05T12:55:55;3.45;;;2.35;;
55210;SDS011;41082;52.822;6.666;2023-04-05T12:58:32;4.50;;;2.30;;
55210;SDS011;41082;52.822;6.666;2023-04-05T13:00:59;5.10;;;2.80;;
55210;SDS011;41082;52.822;6.666;2023-04-05T13:03:25;5.65;;;2.30;;
55210;SDS011;41082;52.822;6.666;2023-04-05T13:05:52;6.07;;;2.72;;
55210;SDS011;41082;52.822;6.666;2023-04-05T13:08:17;4.05;;;2.45;;
55210;SDS011;41082;52.822;6.666;2023-04-05T13:10:47;4.68;;;2.63;;
55210;SDS011;41082;52.822;6.666;2023-04-05T13:13:16;4.93;;;2.33;;
55210;SDS011;41082;52.822;6.666;2023-04-05T13:15:42;3.50;;;2.22;;
55210;SDS011;41082;52.822;6.666;2023-04-05T13:18:08;4.25;;;2.63;;
55210;SDS011;41082;52.822;6.666;2023-04-05T13:20:34;4.55;;;2.42;;
55210;SDS011;41082;52.822;6.666;2023-04-05T13:23:00;5.63;;;2.47;;
55210;SDS011;41082;52.822;6.666;2023-04-05T13:25:26;7.60;;;2.63;;
55210;SDS011;41082;52.822;6.666;2023-04-05T13:27:53;7.03;;;3.03;;
55210;SDS011;41082;52.822;6.666;2023-04-05T13:30:18;4.22;;;2.78;;
55210;SDS011;41082;52.822;6.666;2023-04-05T13:32:44;3.63;;;2.40;;
55210;SDS011;41082;52.822;6.666;2023-04-05T13:35:10;5.00;;;2.28;;
55210;SDS011;41082;52.822;6.666;2023-04-05T13:37:36;4.03;;;2.47;;
55210;SDS011;41082;52.822;6.666;2023-04-05T13:40:01;5.25;;;2.47;;
55210;SDS011;41082;52.822;6.666;2023-04-05T13:42:27;7.03;;;3.17;;
55210;SDS011;41082;52.822;6.666;2023-04-05T13:44:53;4.07;;;2.30;;
55210;SDS011;41082;52.822;6.666;2023-04-05T13:47:18;4.40;;;2.30;;
55210;SDS011;41082;52.822;6.666;2023-04-05T13:49:44;4.45;;;2.67;;
55210;SDS011;41082;52.822;6.666;2023-04-05T13:52:10;4.68;;;2.75;;
55210;SDS011;41082;52.822;6.666;2023-04-05T13:54:36;5.25;;;2.47;;
55210;SDS011;41082;52.822;6.666;2023-04-05T13:57:01;4.35;;;3.90;;
55210;SDS011;41082;52.822;6.666;2023-04-05T13:59:27;5.75;;;2.80;;
55210;SDS011;41082;52.822;6.666;2023-04-05T14:01:53;4.53;;;3.30;;
55210;SDS011;41082;52.822;6.666;2023-04-05T14:04:18;4.90;;;2.30;;
55210;SDS011;41082;52.822;6.666;2023-04-05T14:06:44;3.97;;;2.25;;
55210;SDS011;41082;52.822;6.666;2023-04-05T14:09:10;4.72;;;2.00;;
55210;SDS011;41082;52.822;6.666;2023-04-05T14:11:36;3.63;;;2.15;;
55210;SDS011;41082;52.822;6.666;2023-04-05T14:14:02;5.75;;;2.38;;
55210;SDS011;41082;52.822;6.666;2023-04-05T14:16:27;3.97;;;2.33;;
55210;SDS011;41082;52.822;6.666;2023-04-05T14:18:53;4.90;;;2.13;;
55210;SDS011;41082;52.822;6.666;2023-04-05T14:21:19;5.40;;;2.33;;
55210;SDS011;41082;52.822;6.666;2023-04-05T14:23:45;5.25;;;2.67;;
55210;SDS011;41082;52.822;6.666;2023-04-05T14:26:11;3.90;;;2.30;;
55210;SDS011;41082;52.822;6.666;2023-04-05T14:28:37;4.97;;;2.00;;
55210;SDS011;41082;52.822;6.666;2023-04-05T14:31:02;3.83;;;2.40;;
55210;SDS011;41082;52.822;6.666;2023-04-05T14:33:28;4.20;;;2.15;;
55210;SDS011;41082;52.822;6.666;2023-04-05T14:35:53;4.43;;;2.63;;
55210;SDS011;41082;52.822;6.666;2023-04-05T14:38:19;2.95;;;2.33;;
55210;SDS011;41082;52.822;6.666;2023-04-05T14:40:45;3.97;;;2.05;;
55210;SDS011;41082;52.822;6.666;2023-04-05T14:43:11;3.30;;;1.90;;
55210;SDS011;41082;52.822;6.666;2023-04-05T14:45:37;3.30;;;2.20;;
55210;SDS011;41082;52.822;6.666;2023-04-05T14:48:02;2.67;;;1.95;;
55210;SDS011;41082;52.822;6.666;2023-04-05T14:50:28;5.15;;;2.40;;
55210;SDS011;41082;52.822;6.666;2023-04-05T14:52:57;3.67;;;2.10;;
55210;SDS011;41082;52.822;6.666;2023-04-05T14:55:23;3.15;;;2.22;;
55210;SDS011;41082;52.822;6.666;2023-04-05T14:57:49;6.70;;;2.90;;
55210;SDS011;41082;52.822;6.666;2023-04-05T15:00:15;7.78;;;4.38;;
55210;SDS011;41082;52.822;6.666;2023-04-05T15:02:41;4.28;;;2.60;;
55210;SDS011;41082;52.822;6.666;2023-04-05T15:05:08;5.75;;;2.85;;
55210;SDS011;41082;52.822;6.666;2023-04-05T15:07:34;4.65;;;2.35;;
55210;SDS011;41082;52.822;6.666;2023-04-05T15:10:00;12.82;;;5.63;;